Ashwaubenon, Wisconsin
Current Conditions -  °F | °C
As of 2:53 PM on Tuesday 21 Oct 2014 (Local Time) from KGRB Reporting Station
Clear Clear  
Wind Chill: 51°   Ceiling: Unl
Heat Index: 51°   Visibility: 10mi
Dew Point: 36°   Wind: 9mph
Humidity: 56%   Direction: 60°ENE
Pressure: 30.23"   Gusts: NA
Location:  44.48°N, 88.07°W
Report Text: KGRB 211953Z 06008KT 10SM CLR 11/02 A3023 RMK AO2 SLP243 T01060022
Loading
Personal Weather Stations






























Interactive Weather Map
Tropical Storm Tracking
New forecast layout! Learn more

10-Day Weather Forecast

Advertisements
Track Severe Weather on mobile